Time;durP1;ratioP1;P1;durP2;ratioP2;P2;SDS_P1;SDS_P2;PMS_P1;PMS_P2;Temp;Humidity;BMP_temperature;BMP_pressure;BME280_temperature;BME280_humidity;BME280_pressure;Samples;Min_cycle;Max_cycle;Signal;HPM_P1;HPM_P2
2022/01/06 00:01:22;;;;;;;15.77;2.77;;;3.80;99.90;;;;;;5040475;28;20214;-79
2022/01/06 00:03:52;;;;;;;10.00;2.43;;;3.90;99.90;;;;;;5026488;28;20208;-79
2022/01/06 00:06:20;;;;;;;16.60;2.73;;;3.90;99.90;;;;;;5030129;28;20395;-79
2022/01/06 00:08:47;;;;;;;14.93;2.60;;;4.00;99.90;;;;;;5035126;28;20643;-78
2022/01/06 00:11:14;;;;;;;15.83;2.50;;;3.90;99.90;;;;;;5040753;28;20311;-80
2022/01/06 00:24:28;;;;;;;11.43;2.00;;;3.90;99.90;;;;;;5023167;28;20614;-80
2022/01/06 00:26:56;;;;;;;9.33;2.17;;;3.90;99.90;;;;;;5043039;28;20258;-79
2022/01/06 00:29:24;;;;;;;9.43;2.27;;;3.80;99.90;;;;;;5002859;28;20221;-80
2022/01/06 00:31:52;;;;;;;12.60;2.03;;;3.80;99.90;;;;;;5027182;28;20275;-79
2022/01/06 00:34:19;;;;;;;9.57;1.97;;;3.80;99.90;;;;;;5026055;28;20228;-79
2022/01/06 00:36:45;;;;;;;10.97;2.60;;;3.80;99.90;;;;;;5023357;28;20655;-78
2022/01/06 00:39:12;;;;;;;18.47;3.23;;;3.80;99.90;;;;;;5023920;28;20300;-80
2022/01/06 00:41:39;;;;;;;9.27;1.83;;;3.80;99.90;;;;;;5034647;28;20562;-78
2022/01/06 00:44:07;;;;;;;12.23;2.37;;;3.80;99.90;;;;;;5039684;28;20243;-78
2022/01/06 00:46:34;;;;;;;19.67;2.73;;;3.80;99.90;;;;;;5030963;28;20320;-79
2022/01/06 00:49:02;;;;;;;16.63;2.10;;;3.80;99.90;;;;;;5031390;28;20964;-79
2022/01/06 00:51:32;;;;;;;16.00;3.07;;;3.80;99.90;;;;;;5033190;28;20731;-79
2022/01/06 00:53:59;;;;;;;17.77;3.70;;;3.80;99.90;;;;;;4996599;28;20648;-79
2022/01/06 00:56:26;;;;;;;16.57;2.60;;;3.90;99.90;;;;;;5029746;28;20294;-79
2022/01/06 00:58:52;;;;;;;14.13;2.70;;;3.90;99.90;;;;;;5033130;28;20296;-78
2022/01/06 01:01:19;;;;;;;21.53;2.60;;;4.00;99.90;;;;;;5031757;28;20550;-80
2022/01/06 01:03:46;;;;;;;16.00;2.87;;;4.00;99.90;;;;;;5032965;28;20656;-80
2022/01/06 01:06:13;;;;;;;20.43;3.30;;;4.00;99.90;;;;;;5031322;28;20258;-79
2022/01/06 01:08:40;;;;;;;11.60;2.67;;;4.00;99.90;;;;;;5032521;28;20206;-80
2022/01/06 01:11:07;;;;;;;22.47;3.63;;;4.00;99.90;;;;;;5026520;28;20249;-79
2022/01/06 01:13:37;;;;;;;18.20;3.00;;;3.90;99.90;;;;;;5029131;28;20644;-80
2022/01/06 01:16:22;;;;;;;16.93;2.53;;;3.80;99.90;;;;;;5023797;28;20243;-79
2022/01/06 01:18:49;;;;;;;21.47;3.50;;;3.80;99.90;;;;;;5029873;28;20234;-80
2022/01/06 01:21:22;;;;;;;17.07;3.30;;;3.70;99.90;;;;;;5033345;28;20617;-80
2022/01/06 01:23:49;;;;;;;20.20;3.33;;;3.70;99.90;;;;;;5024667;28;20266;-79
2022/01/06 01:26:15;;;;;;;17.93;3.83;;;3.70;99.90;;;;;;5029951;28;20309;-79
2022/01/06 01:28:45;;;;;;;17.60;3.10;;;3.60;99.90;;;;;;5038814;28;20247;-79
2022/01/06 01:33:52;;;;;;;22.33;3.13;;;3.60;99.90;;;;;;5023586;28;20309;-79
2022/01/06 01:36:19;;;;;;;13.67;3.37;;;3.60;99.90;;;;;;5032914;28;20709;-79
2022/01/06 01:38:47;;;;;;;13.57;3.27;;;3.50;99.90;;;;;;5038217;28;20667;-79
2022/01/06 01:41:14;;;;;;;18.53;3.60;;;3.50;99.90;;;;;;5030798;28;20370;-79
2022/01/06 01:43:41;;;;;;;13.50;2.97;;;3.50;99.90;;;;;;5023557;28;20263;-79
2022/01/06 01:46:12;;;;;;;18.87;2.97;;;3.50;99.90;;;;;;5000736;28;20287;-79
2022/01/06 01:48:43;;;;;;;17.13;2.60;;;3.50;99.90;;;;;;5004700;28;20212;-79
2022/01/06 01:51:10;;;;;;;17.87;3.13;;;3.30;99.90;;;;;;5030530;28;20218;-79
2022/01/06 01:53:38;;;;;;;20.03;2.87;;;3.40;99.90;;;;;;5031377;28;20234;-81
2022/01/06 01:56:07;;;;;;;23.40;3.33;;;3.40;99.90;;;;;;5036130;28;20326;-80
2022/01/06 01:58:35;;;;;;;13.90;3.13;;;3.40;99.90;;;;;;5025838;28;20313;-80
2022/01/06 02:01:06;;;;;;;12.67;2.83;;;3.40;99.90;;;;;;5027587;28;20267;-80
2022/01/06 02:03:33;;;;;;;16.20;2.73;;;3.40;99.90;;;;;;5039194;28;20252;-80
2022/01/06 02:06:00;;;;;;;21.73;3.17;;;3.40;99.90;;;;;;5041333;28;20233;-79
2022/01/06 02:08:27;;;;;;;18.10;2.70;;;3.40;99.90;;;;;;5040338;28;20249;-80
2022/01/06 02:10:54;;;;;;;19.87;2.60;;;3.60;99.90;;;;;;5035319;28;20903;-78
2022/01/06 02:13:27;;;;;;;22.57;3.10;;;3.50;99.90;;;;;;5033869;28;20246;-80
2022/01/06 02:16:00;;;;;;;15.20;4.07;;;3.40;99.90;;;;;;5028332;28;20234;-79
2022/01/06 02:18:28;;;;;;;18.93;3.43;;;3.40;99.90;;;;;;5031125;28;20215;-79
2022/01/06 02:20:55;;;;;;;19.23;3.70;;;3.50;99.90;;;;;;4999559;28;20258;-78
2022/01/06 02:23:22;;;;;;;14.47;2.90;;;3.40;99.90;;;;;;5027093;28;20215;-79
2022/01/06 02:25:49;;;;;;;17.60;2.67;;;3.40;99.90;;;;;;5037407;28;20206;-78
2022/01/06 02:28:18;;;;;;;16.23;3.07;;;3.40;99.90;;;;;;5031288;28;20317;-78
2022/01/06 02:30:50;;;;;;;16.70;2.90;;;3.50;99.90;;;;;;5023391;28;21492;-78
2022/01/06 02:33:17;;;;;;;11.97;3.00;;;3.50;99.90;;;;;;5029488;28;20211;-79
2022/01/06 02:35:45;;;;;;;22.60;3.67;;;3.40;99.90;;;;;;5025548;28;20222;-78
2022/01/06 02:38:12;;;;;;;18.80;2.90;;;3.40;99.90;;;;;;5025613;28;20237;-78
2022/01/06 02:40:39;;;;;;;24.97;3.13;;;3.40;99.90;;;;;;5022600;28;20602;-79
2022/01/06 02:43:07;;;;;;;12.73;2.33;;;3.50;99.90;;;;;;5032567;28;20294;-80
2022/01/06 02:45:36;;;;;;;22.83;2.63;;;3.50;99.90;;;;;;5032664;28;20211;-79
2022/01/06 02:48:08;;;;;;;14.07;2.83;;;3.50;99.90;;;;;;5034195;28;20319;-78
2022/01/06 02:50:38;;;;;;;14.30;2.60;;;3.50;99.90;;;;;;4991179;28;20244;-78
2022/01/06 02:53:05;;;;;;;12.97;2.50;;;3.50;99.90;;;;;;5019012;28;20249;-78
2022/01/06 02:55:34;;;;;;;15.40;2.70;;;3.70;99.90;;;;;;5032802;28;20327;-78
2022/01/06 02:58:01;;;;;;;12.80;2.33;;;3.50;99.90;;;;;;5027472;28;20343;-78
2022/01/06 03:00:31;;;;;;;16.90;2.40;;;3.50;99.90;;;;;;5019163;28;20556;-81
2022/01/06 03:02:58;;;;;;;13.10;2.30;;;3.50;99.90;;;;;;5031598;28;20232;-78
2022/01/06 03:05:25;;;;;;;17.97;2.63;;;3.50;99.90;;;;;;5026250;28;20309;-80
2022/01/06 03:07:52;;;;;;;16.47;2.13;;;3.50;99.90;;;;;;5034992;28;20235;-79
2022/01/06 03:10:19;;;;;;;6.10;2.57;;;3.50;99.90;;;;;;5038476;28;20213;-79
2022/01/06 03:12:47;;;;;;;12.60;2.30;;;3.50;99.90;;;;;;5031483;28;20227;-79
2022/01/06 03:15:22;;;;;;;14.30;2.90;;;3.40;99.90;;;;;;5032044;28;20216;-79
2022/01/06 03:17:55;;;;;;;9.97;2.27;;;3.40;99.90;;;;;;5033803;28;20205;-79
2022/01/06 03:20:23;;;;;;;18.70;2.80;;;3.30;99.90;;;;;;5035774;28;20214;-79
2022/01/06 03:22:51;;;;;;;13.63;2.37;;;3.30;99.90;;;;;;5035141;28;20260;-79
2022/01/06 03:25:18;;;;;;;12.77;2.20;;;3.30;99.90;;;;;;5028366;28;20214;-79
2022/01/06 03:27:45;;;;;;;17.63;2.57;;;3.20;99.90;;;;;;5044754;28;20230;-79
2022/01/06 03:30:19;;;;;;;14.37;2.60;;;3.20;99.90;;;;;;5040707;28;20204;-78
2022/01/06 03:32:46;;;;;;;12.03;2.27;;;3.10;99.90;;;;;;5035023;28;20538;-79
2022/01/06 03:35:16;;;;;;;17.60;2.27;;;3.20;99.90;;;;;;5028005;28;20220;-80
2022/01/06 03:37:43;;;;;;;14.23;2.20;;;3.00;99.90;;;;;;5034084;28;20252;-79
2022/01/06 03:40:10;;;;;;;13.43;2.17;;;3.00;99.90;;;;;;5028742;28;20210;-78
2022/01/06 03:42:37;;;;;;;6.90;2.13;;;3.00;99.90;;;;;;5035643;28;20219;-79
2022/01/06 03:45:07;;;;;;;14.37;2.37;;;3.00;99.90;;;;;;5030474;28;20205;-79
2022/01/06 03:47:34;;;;;;;8.70;1.80;;;2.90;99.90;;;;;;5035478;28;20345;-80
2022/01/06 03:50:01;;;;;;;7.83;1.77;;;2.90;99.90;;;;;;5033910;28;20824;-79
2022/01/06 03:52:28;;;;;;;14.60;2.50;;;2.90;99.90;;;;;;5025701;28;20832;-79
2022/01/06 03:54:56;;;;;;;10.30;2.23;;;2.90;99.90;;;;;;5037169;28;20429;-79
2022/01/06 03:57:23;;;;;;;9.93;2.03;;;2.90;99.90;;;;;;5036848;28;20368;-79
2022/01/06 03:59:51;;;;;;;8.97;2.20;;;2.80;99.90;;;;;;5028553;28;20252;-80
2022/01/06 04:02:17;;;;;;;10.60;1.97;;;2.80;99.90;;;;;;5026004;28;20320;-79
2022/01/06 04:04:44;;;;;;;10.37;2.30;;;2.90;99.90;;;;;;5031342;28;20319;-80
2022/01/06 04:07:11;;;;;;;7.30;1.60;;;2.80;99.90;;;;;;5008578;28;20644;-80
2022/01/06 04:09:38;;;;;;;11.23;2.27;;;2.80;99.90;;;;;;5029542;28;20219;-80
2022/01/06 04:12:09;;;;;;;12.83;1.90;;;2.90;99.90;;;;;;5042551;28;20217;-80
2022/01/06 04:14:37;;;;;;;9.77;2.17;;;2.90;99.90;;;;;;5028869;28;20218;-79
2022/01/06 04:17:07;;;;;;;9.73;1.83;;;2.90;99.90;;;;;;5037605;28;20217;-79
2022/01/06 04:19:35;;;;;;;7.47;1.63;;;2.90;99.90;;;;;;5030482;28;20265;-80
2022/01/06 04:22:05;;;;;;;8.60;1.93;;;3.10;99.90;;;;;;5056332;28;20213;-79
2022/01/06 04:24:33;;;;;;;5.43;1.83;;;3.00;99.90;;;;;;5044395;28;20202;-79
2022/01/06 04:27:02;;;;;;;9.90;1.90;;;3.00;99.90;;;;;;5028547;28;20746;-79
2022/01/06 04:29:29;;;;;;;11.87;2.57;;;3.00;99.90;;;;;;5036756;28;20210;-80
2022/01/06 04:31:56;;;;;;;11.23;2.00;;;3.00;99.90;;;;;;5028244;28;20608;-80
2022/01/06 04:34:23;;;;;;;9.30;2.00;;;3.00;99.90;;;;;;5036932;28;20367;-80
2022/01/06 04:36:54;;;;;;;6.90;1.60;;;3.00;99.90;;;;;;5031753;28;20207;-80
2022/01/06 04:39:21;;;;;;;10.87;2.00;;;3.00;99.90;;;;;;5026162;28;20292;-80
2022/01/06 04:41:47;;;;;;;15.33;2.03;;;3.00;99.90;;;;;;5012721;28;20218;-79
2022/01/06 04:44:14;;;;;;;14.23;2.47;;;2.90;99.90;;;;;;5017139;28;20243;-78
2022/01/06 04:46:41;;;;;;;12.13;2.27;;;2.90;99.90;;;;;;5006581;28;20242;-80
2022/01/06 04:49:08;;;;;;;13.33;2.50;;;3.00;99.90;;;;;;5029413;28;20245;-79
2022/01/06 04:51:35;;;;;;;4.57;1.60;;;2.80;99.90;;;;;;5030627;28;20301;-80
2022/01/06 04:54:06;;;;;;;10.03;2.07;;;2.80;99.90;;;;;;5029150;28;20287;-78
2022/01/06 04:56:36;;;;;;;8.67;2.37;;;2.80;99.90;;;;;;5022760;28;20230;-80
2022/01/06 04:59:08;;;;;;;7.93;2.53;;;2.70;99.90;;;;;;5032607;28;20213;-79
2022/01/06 05:01:37;;;;;;;16.50;2.10;;;2.70;99.90;;;;;;5033897;28;20216;-80
2022/01/06 05:04:05;;;;;;;10.70;2.30;;;2.70;99.90;;;;;;5028754;28;20292;-80
2022/01/06 05:06:32;;;;;;;6.17;2.20;;;2.70;99.90;;;;;;5038710;28;20252;-78
2022/01/06 05:08:59;;;;;;;5.67;1.90;;;2.60;99.90;;;;;;5032328;28;20282;-79
2022/01/06 05:11:27;;;;;;;11.50;1.87;;;2.60;99.90;;;;;;5034854;28;20320;-79
2022/01/06 05:13:54;;;;;;;10.30;2.40;;;2.60;99.90;;;;;;5035982;28;20300;-78
2022/01/06 05:16:21;;;;;;;13.17;2.33;;;2.60;99.90;;;;;;5031358;28;20352;-79
2022/01/06 05:18:48;;;;;;;8.43;2.30;;;2.50;99.90;;;;;;5007428;28;20209;-79
2022/01/06 05:21:15;;;;;;;16.20;2.10;;;2.50;99.90;;;;;;5037591;28;20266;-79
2022/01/06 05:23:42;;;;;;;14.23;2.97;;;2.50;99.90;;;;;;5030400;28;20681;-79
2022/01/06 05:26:09;;;;;;;11.67;2.87;;;2.50;99.90;;;;;;5044777;28;20237;-80
2022/01/06 05:28:36;;;;;;;8.57;2.17;;;2.50;99.90;;;;;;5023419;28;20317;-79
2022/01/06 05:31:04;;;;;;;18.50;2.67;;;2.50;99.90;;;;;;5004492;28;20248;-80
2022/01/06 05:33:31;;;;;;;15.37;2.53;;;2.50;99.90;;;;;;5032024;28;20967;-79
2022/01/06 05:35:58;;;;;;;9.03;2.50;;;2.50;99.90;;;;;;5027936;28;20320;-78
2022/01/06 05:38:25;;;;;;;19.40;3.03;;;2.50;99.90;;;;;;5030634;28;20606;-80
2022/01/06 05:40:52;;;;;;;8.77;1.93;;;2.40;99.90;;;;;;5041227;28;20206;-79
2022/01/06 05:43:20;;;;;;;15.70;2.17;;;2.30;99.90;;;;;;5043845;28;20294;-80
2022/01/06 05:45:51;;;;;;;13.70;2.97;;;2.40;99.90;;;;;;5031298;28;20302;-77
2022/01/06 05:48:18;;;;;;;10.17;2.40;;;2.40;99.90;;;;;;5045619;28;20264;-78
2022/01/06 05:50:48;;;;;;;17.60;2.60;;;2.40;99.90;;;;;;5037079;28;20244;-78
2022/01/06 05:53:18;;;;;;;20.80;3.13;;;2.40;99.90;;;;;;5043727;28;20319;-79
2022/01/06 05:55:44;;;;;;;19.57;3.17;;;2.30;99.90;;;;;;5050665;28;20264;-78
2022/01/06 05:58:12;;;;;;;16.70;4.90;;;2.30;99.90;;;;;;5027878;28;20292;-78
2022/01/06 06:00:39;;;;;;;23.70;6.63;;;2.30;99.90;;;;;;5017355;28;20291;-78
2022/01/06 06:03:06;;;;;;;24.63;7.17;;;2.30;99.90;;;;;;5006141;28;20206;-79
2022/01/06 06:05:33;;;;;;;18.10;6.00;;;2.30;99.90;;;;;;5032119;28;20264;-78
2022/01/06 06:08:00;;;;;;;26.70;5.93;;;2.30;99.90;;;;;;5028298;28;20293;-78
2022/01/06 06:10:27;;;;;;;16.27;4.27;;;2.20;99.90;;;;;;5027318;28;20202;-79
2022/01/06 06:12:55;;;;;;;22.83;3.20;;;2.20;99.90;;;;;;5031667;28;20209;-80
2022/01/06 06:15:22;;;;;;;10.13;2.87;;;2.30;99.90;;;;;;5018597;28;20685;-78
2022/01/06 06:17:49;;;;;;;16.67;3.20;;;2.30;99.90;;;;;;5026094;28;20733;-79
2022/01/06 06:20:16;;;;;;;16.37;3.33;;;2.30;99.90;;;;;;5028009;28;20281;-79
2022/01/06 06:22:43;;;;;;;13.20;2.53;;;2.20;99.90;;;;;;5029540;28;20287;-78
2022/01/06 06:25:10;;;;;;;11.70;2.73;;;2.20;99.90;;;;;;5036795;28;20315;-78
2022/01/06 06:27:37;;;;;;;17.67;3.17;;;2.20;99.90;;;;;;5006167;28;20276;-79
2022/01/06 06:30:05;;;;;;;15.53;2.63;;;2.20;99.90;;;;;;5034498;28;20255;-78
2022/01/06 06:32:33;;;;;;;14.70;2.60;;;2.20;99.90;;;;;;5012696;28;20257;-78
2022/01/06 06:35:02;;;;;;;12.07;2.63;;;2.20;99.90;;;;;;5046883;28;20222;-78
2022/01/06 06:37:29;;;;;;;9.23;2.83;;;2.10;99.90;;;;;;5032608;28;20260;-79
2022/01/06 06:39:57;;;;;;;20.60;4.00;;;2.10;99.90;;;;;;5036783;28;20237;-79
2022/01/06 06:42:25;;;;;;;18.07;3.40;;;2.00;99.90;;;;;;5038699;28;20225;-79
2022/01/06 06:44:52;;;;;;;10.63;2.90;;;2.00;99.90;;;;;;5007040;28;20566;-79
2022/01/06 06:47:20;;;;;;;12.60;3.00;;;2.00;99.90;;;;;;5026478;28;20240;-78
2022/01/06 06:49:47;;;;;;;13.23;2.90;;;1.90;99.90;;;;;;5035106;28;20217;-78
2022/01/06 06:52:14;;;;;;;15.33;3.20;;;1.90;99.90;;;;;;5040108;28;20225;-80
2022/01/06 06:54:41;;;;;;;16.17;3.20;;;1.90;99.90;;;;;;5028669;28;20293;-78
2022/01/06 06:57:08;;;;;;;16.93;2.90;;;1.80;99.90;;;;;;5048757;28;20206;-78
2022/01/06 06:59:36;;;;;;;18.93;3.10;;;1.90;99.90;;;;;;5036743;28;20229;-78
2022/01/06 07:02:03;;;;;;;22.93;3.53;;;1.90;99.90;;;;;;5021723;28;20620;-78
2022/01/06 07:04:30;;;;;;;23.93;3.53;;;1.90;99.90;;;;;;5027603;28;20216;-79
2022/01/06 07:07:12;;;;;;;17.07;3.20;;;1.90;99.90;;;;;;5024456;28;20233;-78
2022/01/06 07:09:39;;;;;;;12.50;2.90;;;1.90;99.90;;;;;;5031723;28;20251;-79
2022/01/06 07:12:07;;;;;;;18.80;4.27;;;1.80;99.90;;;;;;5029627;28;20206;-78
2022/01/06 07:14:34;;;;;;;21.87;3.30;;;1.90;99.90;;;;;;5033246;28;20256;-77
2022/01/06 07:17:02;;;;;;;12.03;3.30;;;1.80;99.90;;;;;;5050806;28;20280;-79
2022/01/06 07:19:29;;;;;;;33.30;3.67;;;1.80;99.90;;;;;;5036072;28;20253;-78
2022/01/06 07:21:55;;;;;;;20.37;3.10;;;1.80;99.90;;;;;;5036482;28;20283;-78
2022/01/06 07:24:22;;;;;;;18.17;3.63;;;1.80;99.90;;;;;;5045495;28;20233;-79
2022/01/06 07:26:49;;;;;;;19.33;3.53;;;1.80;99.90;;;;;;5041109;28;20234;-79
2022/01/06 07:29:16;;;;;;;16.30;3.40;;;1.80;99.90;;;;;;5025978;28;20345;-78
2022/01/06 07:31:43;;;;;;;21.87;3.50;;;1.80;99.90;;;;;;5044966;28;20213;-78
2022/01/06 07:34:11;;;;;;;17.03;3.60;;;1.80;99.90;;;;;;5032360;28;20213;-78
2022/01/06 07:36:38;;;;;;;15.23;3.77;;;1.80;99.90;;;;;;5030416;28;20213;-80
2022/01/06 07:39:06;;;;;;;15.33;3.93;;;1.80;99.90;;;;;;5014585;28;20201;-78
2022/01/06 07:41:33;;;;;;;15.27;3.33;;;1.80;99.90;;;;;;5032963;28;20210;-77
2022/01/06 07:44:00;;;;;;;21.47;3.70;;;1.80;99.90;;;;;;5014939;28;20692;-79
2022/01/06 07:46:27;;;;;;;21.97;3.60;;;1.70;99.90;;;;;;5025063;28;20570;-79
2022/01/06 07:48:57;;;;;;;16.57;3.17;;;1.70;99.90;;;;;;5039891;28;20335;-80
2022/01/06 07:51:29;;;;;;;25.37;3.47;;;1.70;99.90;;;;;;5013043;28;20447;-78
2022/01/06 07:53:58;;;;;;;19.47;3.27;;;1.70;99.90;;;;;;5017472;28;20208;-78
2022/01/06 07:56:25;;;;;;;26.13;3.50;;;1.60;99.90;;;;;;5016230;28;20249;-78
2022/01/06 07:58:53;;;;;;;13.13;3.47;;;1.80;99.90;;;;;;5037206;28;20213;-78
2022/01/06 08:01:20;;;;;;;13.40;3.23;;;1.60;99.90;;;;;;5005938;28;20217;-77
2022/01/06 08:03:47;;;;;;;13.27;3.37;;;1.70;99.90;;;;;;5030735;28;20205;-80
2022/01/06 08:06:15;;;;;;;19.90;4.27;;;1.60;99.90;;;;;;5035194;28;20229;-79
2022/01/06 08:08:42;;;;;;;13.83;2.80;;;1.60;99.90;;;;;;5033254;28;20339;-78
2022/01/06 08:11:10;;;;;;;11.73;3.13;;;1.60;99.90;;;;;;5030100;28;20237;-78
2022/01/06 08:13:37;;;;;;;19.60;3.60;;;1.50;99.90;;;;;;5026564;28;20288;-78
2022/01/06 08:16:04;;;;;;;19.67;3.37;;;1.60;99.90;;;;;;5031287;28;20236;-77
2022/01/06 08:18:31;;;;;;;12.53;3.40;;;1.60;99.90;;;;;;5035865;28;20219;-78
2022/01/06 08:20:59;;;;;;;22.77;3.27;;;1.60;99.90;;;;;;5027273;28;20328;-78
2022/01/06 08:23:26;;;;;;;23.17;3.23;;;1.60;99.90;;;;;;5032980;28;20245;-78
2022/01/06 08:25:53;;;;;;;23.57;4.67;;;1.60;99.90;;;;;;5032570;28;20650;-77
2022/01/06 08:28:20;;;;;;;17.00;3.73;;;1.50;99.90;;;;;;5029453;28;20241;-78
2022/01/06 08:30:47;;;;;;;24.17;4.47;;;1.50;99.90;;;;;;5033077;28;20242;-77
2022/01/06 08:33:15;;;;;;;19.57;4.50;;;1.60;99.90;;;;;;5036713;28;20265;-79
2022/01/06 08:35:43;;;;;;;22.93;5.13;;;1.70;99.90;;;;;;5031050;28;20224;-78
2022/01/06 08:38:15;;;;;;;29.77;5.07;;;1.70;99.90;;;;;;5033019;28;20559;-77
2022/01/06 08:40:41;;;;;;;25.63;4.47;;;1.70;99.90;;;;;;5025724;28;20225;-79
2022/01/06 08:43:08;;;;;;;16.27;3.70;;;1.70;99.90;;;;;;5029015;28;20201;-77
2022/01/06 08:45:36;;;;;;;26.20;4.30;;;1.70;99.90;;;;;;5035342;28;20213;-78
2022/01/06 08:48:05;;;;;;;17.87;4.37;;;1.80;99.90;;;;;;5034869;28;20702;-78
2022/01/06 08:50:32;;;;;;;20.27;4.40;;;1.80;99.90;;;;;;5033460;28;20279;-78
2022/01/06 08:52:59;;;;;;;25.57;4.63;;;1.80;99.90;;;;;;5032174;28;20689;-78
2022/01/06 08:55:27;;;;;;;24.00;4.53;;;1.90;99.90;;;;;;5012109;28;20265;-79
2022/01/06 08:57:54;;;;;;;25.10;4.90;;;1.90;99.90;;;;;;5010546;28;20612;-78
2022/01/06 09:00:22;;;;;;;22.97;4.67;;;1.90;99.90;;;;;;5008360;28;20212;-78
2022/01/06 09:02:49;;;;;;;29.97;4.83;;;2.00;99.90;;;;;;5011313;28;20301;-78
2022/01/06 09:05:16;;;;;;;23.07;5.97;;;2.00;99.90;;;;;;5010095;28;20241;-78
2022/01/06 09:07:43;;;;;;;21.27;5.43;;;2.00;99.90;;;;;;5021775;28;20666;-78
2022/01/06 09:10:11;;;;;;;22.93;4.97;;;2.10;99.90;;;;;;5022046;28;20253;-78
2022/01/06 09:12:38;;;;;;;21.97;5.30;;;2.20;99.90;;;;;;5012030;28;20578;-80
2022/01/06 09:15:07;;;;;;;30.33;5.57;;;2.20;99.90;;;;;;5007070;28;20213;-78
2022/01/06 09:17:38;;;;;;;19.57;5.03;;;2.30;99.90;;;;;;5010596;28;20302;-78
2022/01/06 09:20:07;;;;;;;21.63;5.53;;;2.30;99.90;;;;;;5012995;28;20214;-77
2022/01/06 09:22:39;;;;;;;27.90;5.60;;;2.30;99.90;;;;;;5010196;28;20207;-77
2022/01/06 09:25:06;;;;;;;42.93;6.53;;;2.40;99.90;;;;;;5034309;28;20264;-77
2022/01/06 09:27:32;;;;;;;21.43;5.73;;;2.40;99.90;;;;;;5008947;28;20210;-79
2022/01/06 09:30:00;;;;;;;18.07;4.97;;;2.50;99.90;;;;;;5016229;28;20358;-77
2022/01/06 09:32:26;;;;;;;31.80;4.63;;;2.40;99.90;;;;;;5008605;28;20211;-79
2022/01/06 09:34:53;;;;;;;25.57;5.97;;;2.60;99.90;;;;;;5019573;28;20305;-77
2022/01/06 09:37:20;;;;;;;34.43;5.40;;;2.60;99.90;;;;;;5014360;28;20230;-79
2022/01/06 09:39:47;;;;;;;17.00;5.20;;;2.70;99.90;;;;;;4999521;28;20204;-78
2022/01/06 09:42:16;;;;;;;21.93;6.77;;;2.70;99.90;;;;;;5032120;28;20312;-79
2022/01/06 09:44:43;;;;;;;19.90;5.60;;;2.80;99.90;;;;;;5010678;28;20302;-77
2022/01/06 09:47:10;;;;;;;20.20;5.17;;;2.80;99.90;;;;;;5016453;28;20207;-77
2022/01/06 09:49:58;;;;;;;18.63;5.17;;;2.90;99.90;;;;;;5012885;28;20238;-78
2022/01/06 09:52:25;;;;;;;18.47;4.87;;;3.10;99.90;;;;;;5018433;28;20262;-79
2022/01/06 09:54:51;;;;;;;20.73;5.50;;;2.90;99.90;;;;;;5022497;28;20299;-78
2022/01/06 09:57:18;;;;;;;22.97;4.77;;;3.00;99.90;;;;;;5021473;28;20561;-79
2022/01/06 09:59:45;;;;;;;18.10;4.90;;;3.10;99.90;;;;;;5038936;28;20272;-77
2022/01/06 10:02:18;;;;;;;24.80;6.30;;;3.20;99.90;;;;;;5028720;28;20202;-78
2022/01/06 10:04:57;;;;;;;22.20;5.40;;;3.20;99.90;;;;;;5033461;28;20249;-78
2022/01/06 10:07:24;;;;;;;21.63;5.30;;;3.30;99.90;;;;;;5027043;28;20666;-79
2022/01/06 10:09:51;;;;;;;17.27;5.20;;;3.30;99.90;;;;;;5035071;28;20266;-77
2022/01/06 10:12:18;;;;;;;24.90;4.93;;;3.40;99.90;;;;;;5031104;28;20210;-78
2022/01/06 10:14:49;;;;;;;17.20;4.67;;;3.40;99.90;;;;;;5034216;28;20210;-77
2022/01/06 10:17:32;;;;;;;21.13;4.70;;;3.60;99.90;;;;;;5034184;28;20731;-79
2022/01/06 10:20:17;;;;;;;16.97;4.50;;;3.50;99.90;;;;;;5049736;28;20227;-78
2022/01/06 10:22:48;;;;;;;14.50;4.33;;;3.60;99.90;;;;;;5032593;28;20207;-78
2022/01/06 10:25:16;;;;;;;13.87;5.07;;;3.70;99.90;;;;;;5037790;28;20211;-79
2022/01/06 10:27:45;;;;;;;22.60;4.57;;;3.70;99.90;;;;;;5040890;28;20618;-79
2022/01/06 10:30:13;;;;;;;23.03;4.80;;;3.70;99.90;;;;;;5041152;28;20551;-78
2022/01/06 10:32:41;;;;;;;23.37;5.70;;;3.80;99.90;;;;;;5030859;28;20204;-79
2022/01/06 10:35:10;;;;;;;17.03;5.30;;;3.80;99.90;;;;;;5031226;28;20648;-78
2022/01/06 10:37:45;;;;;;;18.23;5.40;;;3.80;99.90;;;;;;5031941;28;20299;-78
2022/01/06 10:40:17;;;;;;;16.87;5.53;;;3.90;99.90;;;;;;5000875;28;20243;-78
2022/01/06 10:42:53;;;;;;;23.23;6.80;;;3.90;99.90;;;;;;5045020;28;20727;-79
2022/01/06 10:45:25;;;;;;;15.07;4.23;;;4.00;99.90;;;;;;5038813;28;20273;-78
2022/01/06 10:47:58;;;;;;;19.30;4.50;;;4.00;99.90;;;;;;5031119;28;20216;-79
2022/01/06 10:50:26;;;;;;;15.77;4.03;;;4.10;99.90;;;;;;5031998;28;20324;-79
2022/01/06 10:52:54;;;;;;;16.03;4.33;;;4.20;99.90;;;;;;5039905;28;20291;-79
2022/01/06 10:55:26;;;;;;;10.27;4.50;;;4.20;99.90;;;;;;5032424;28;20234;-79
2022/01/06 10:57:55;;;;;;;16.83;3.97;;;4.30;99.90;;;;;;5050734;28;20209;-79
2022/01/06 11:00:24;;;;;;;14.00;3.80;;;4.30;99.90;;;;;;5020818;28;20590;-79
2022/01/06 11:03:04;;;;;;;12.53;3.77;;;4.40;99.90;;;;;;5038076;28;20621;-80
2022/01/06 11:05:31;;;;;;;25.47;4.50;;;4.40;99.90;;;;;;5029326;28;20228;-80
2022/01/06 11:07:59;;;;;;;17.70;3.80;;;4.40;99.90;;;;;;5031779;28;20217;-79
2022/01/06 11:10:27;;;;;;;18.30;3.40;;;4.50;99.90;;;;;;5036664;28;20265;-78
2022/01/06 11:12:53;;;;;;;17.63;4.47;;;4.50;99.90;;;;;;5037579;28;20289;-80
2022/01/06 11:15:20;;;;;;;13.40;3.53;;;4.60;99.90;;;;;;5035672;28;20662;-81
2022/01/06 11:17:48;;;;;;;17.23;4.03;;;4.60;99.90;;;;;;5034484;28;20673;-80
2022/01/06 11:20:25;;;;;;;23.20;3.40;;;4.60;99.90;;;;;;5038964;28;20221;-81
2022/01/06 11:22:54;;;;;;;22.83;3.93;;;4.70;99.90;;;;;;5045250;28;20671;-80
2022/01/06 11:25:34;;;;;;;14.00;3.27;;;4.80;99.90;;;;;;5031571;28;20206;-79
2022/01/06 11:28:06;;;;;;;15.53;3.53;;;4.90;99.90;;;;;;5037075;28;20210;-79
2022/01/06 11:30:47;;;;;;;16.87;3.10;;;4.90;99.90;;;;;;5038406;28;20271;-80
2022/01/06 11:33:15;;;;;;;11.97;2.80;;;5.00;99.90;;;;;;5029945;28;20573;-79
2022/01/06 11:35:53;;;;;;;20.20;3.77;;;5.00;99.90;;;;;;5040704;28;20241;-80
2022/01/06 11:38:25;;;;;;;11.83;2.77;;;5.10;99.90;;;;;;5030539;28;20241;-80
2022/01/06 11:41:09;;;;;;;11.83;3.23;;;5.10;99.90;;;;;;5036992;28;20251;-81
2022/01/06 11:43:42;;;;;;;12.83;3.00;;;5.20;99.90;;;;;;5038773;28;20210;-80
2022/01/06 11:46:10;;;;;;;12.07;2.83;;;5.20;99.90;;;;;;4999748;28;20206;-80
2022/01/06 11:48:48;;;;;;;17.43;3.13;;;5.20;99.90;;;;;;5039801;28;20519;-81
2022/01/06 11:51:23;;;;;;;18.50;2.70;;;5.20;99.90;;;;;;5036636;28;20229;-81
2022/01/06 11:53:50;;;;;;;11.40;3.13;;;5.30;99.90;;;;;;5050151;28;20324;-79
2022/01/06 11:56:17;;;;;;;10.27;2.83;;;5.30;99.90;;;;;;5033233;28;20313;-79
2022/01/06 11:58:56;;;;;;;13.80;2.33;;;5.30;99.90;;;;;;5032642;28;20311;-80
2022/01/06 12:01:23;;;;;;;12.43;2.70;;;5.30;99.90;;;;;;5033772;28;20546;-80
2022/01/06 12:03:51;;;;;;;14.67;3.27;;;5.40;99.90;;;;;;5035114;28;20724;-80
2022/01/06 12:06:29;;;;;;;13.83;2.67;;;5.40;99.90;;;;;;5020938;28;20269;-79
2022/01/06 12:08:57;;;;;;;11.50;2.60;;;5.40;99.90;;;;;;5038531;28;20239;-79
2022/01/06 12:11:36;;;;;;;11.77;2.57;;;5.50;99.90;;;;;;5038884;28;20298;-79
2022/01/06 12:14:03;;;;;;;12.70;3.53;;;5.50;99.90;;;;;;5027206;28;20241;-80
2022/01/06 12:16:34;;;;;;;11.40;2.70;;;5.60;99.90;;;;;;5029515;28;20660;-79
2022/01/06 12:19:16;;;;;;;11.73;3.53;;;5.50;99.90;;;;;;5038389;28;20300;-80
2022/01/06 12:21:43;;;;;;;9.30;2.93;;;5.70;99.90;;;;;;5028239;28;20229;-80
2022/01/06 12:24:12;;;;;;;11.13;2.83;;;5.60;99.90;;;;;;5015537;28;20700;-80
2022/01/06 12:26:40;;;;;;;12.17;2.80;;;5.70;99.90;;;;;;5033551;28;20241;-79
2022/01/06 12:29:20;;;;;;;17.20;3.57;;;5.70;99.90;;;;;;5030539;28;20232;-79
2022/01/06 12:31:48;;;;;;;12.83;3.40;;;5.70;99.90;;;;;;5034997;28;20207;-80
2022/01/06 12:34:15;;;;;;;8.67;2.67;;;5.70;99.90;;;;;;5049748;28;20375;-79
2022/01/06 12:36:44;;;;;;;8.33;2.57;;;5.80;99.90;;;;;;5032058;28;20205;-79
2022/01/06 12:39:18;;;;;;;17.57;3.00;;;5.70;99.90;;;;;;5036388;28;20291;-80
2022/01/06 12:41:47;;;;;;;16.73;4.03;;;5.70;99.90;;;;;;5028429;28;20300;-82
2022/01/06 12:44:27;;;;;;;11.13;2.53;;;5.80;99.90;;;;;;5032045;28;20708;-81
2022/01/06 12:46:56;;;;;;;14.13;3.53;;;5.80;99.90;;;;;;5025978;28;20202;-79
2022/01/06 12:49:23;;;;;;;14.17;3.17;;;5.80;99.90;;;;;;5031008;28;20257;-80
2022/01/06 12:51:54;;;;;;;11.40;3.17;;;5.90;99.90;;;;;;5030446;28;20738;-81
2022/01/06 12:54:23;;;;;;;8.20;2.50;;;5.90;99.90;;;;;;5034026;28;20315;-80
2022/01/06 12:56:53;;;;;;;5.80;2.33;;;5.90;99.90;;;;;;5042734;28;20302;-80
2022/01/06 12:59:23;;;;;;;9.87;3.03;;;5.90;99.90;;;;;;5045335;28;20234;-82
2022/01/06 13:01:54;;;;;;;7.23;2.53;;;6.00;99.90;;;;;;5054406;28;20193;-80
2022/01/06 13:04:27;;;;;;;7.23;3.10;;;6.00;99.90;;;;;;5051480;28;20209;-80
2022/01/06 13:06:56;;;;;;;18.47;2.90;;;6.00;99.90;;;;;;5044558;28;20217;-81
2022/01/06 13:09:26;;;;;;;11.20;3.17;;;6.00;99.90;;;;;;5034658;28;20225;-81